sensor_id;sensor_type;location;lat;lon;timestamp;P1;durP1;ratioP1;P2;durP2;ratioP2
26806;SDS011;14380;49.910;6.792;2023-08-21T00:02:16;1.65;;;1.30;;
26806;SDS011;14380;49.910;6.792;2023-08-21T00:04:43;5.95;;;2.00;;
26806;SDS011;14380;49.910;6.792;2023-08-21T00:07:10;2.45;;;1.88;;
26806;SDS011;14380;49.910;6.792;2023-08-21T00:09:38;3.65;;;2.25;;
26806;SDS011;14380;49.910;6.792;2023-08-21T00:12:05;4.80;;;2.13;;
26806;SDS011;14380;49.910;6.792;2023-08-21T00:14:32;3.42;;;1.77;;
26806;SDS011;14380;49.910;6.792;2023-08-21T00:16:59;2.78;;;1.67;;
26806;SDS011;14380;49.910;6.792;2023-08-21T00:19:25;3.20;;;2.03;;
26806;SDS011;14380;49.910;6.792;2023-08-21T00:21:52;1.83;;;1.60;;
26806;SDS011;14380;49.910;6.792;2023-08-21T00:24:18;3.75;;;1.70;;
26806;SDS011;14380;49.910;6.792;2023-08-21T00:26:47;2.13;;;1.35;;
26806;SDS011;14380;49.910;6.792;2023-08-21T00:29:13;3.30;;;2.08;;
26806;SDS011;14380;49.910;6.792;2023-08-21T00:31:40;3.42;;;1.77;;
26806;SDS011;14380;49.910;6.792;2023-08-21T00:34:06;1.42;;;1.17;;
26806;SDS011;14380;49.910;6.792;2023-08-21T00:36:33;3.67;;;1.95;;
26806;SDS011;14380;49.910;6.792;2023-08-21T00:38:59;4.32;;;2.35;;
26806;SDS011;14380;49.910;6.792;2023-08-21T00:41:26;2.92;;;1.95;;
26806;SDS011;14380;49.910;6.792;2023-08-21T00:43:54;6.15;;;1.77;;
26806;SDS011;14380;49.910;6.792;2023-08-21T00:46:21;1.75;;;1.42;;
26806;SDS011;14380;49.910;6.792;2023-08-21T00:48:48;2.55;;;1.70;;
26806;SDS011;14380;49.910;6.792;2023-08-21T00:51:14;2.00;;;1.27;;
26806;SDS011;14380;49.910;6.792;2023-08-21T00:53:42;3.00;;;1.40;;
26806;SDS011;14380;49.910;6.792;2023-08-21T00:56:10;2.95;;;1.30;;
26806;SDS011;14380;49.910;6.792;2023-08-21T00:58:37;3.40;;;2.25;;
26806;SDS011;14380;49.910;6.792;2023-08-21T01:01:06;2.67;;;1.88;;
26806;SDS011;14380;49.910;6.792;2023-08-21T01:03:32;2.25;;;1.48;;
26806;SDS011;14380;49.910;6.792;2023-08-21T01:05:59;2.45;;;2.00;;
26806;SDS011;14380;49.910;6.792;2023-08-21T01:08:27;3.63;;;2.63;;
26806;SDS011;14380;49.910;6.792;2023-08-21T01:11:02;2.05;;;1.38;;
26806;SDS011;14380;49.910;6.792;2023-08-21T01:13:40;2.03;;;1.60;;
26806;SDS011;14380;49.910;6.792;2023-08-21T01:16:15;2.85;;;2.10;;
26806;SDS011;14380;49.910;6.792;2023-08-21T01:18:42;3.53;;;2.00;;
26806;SDS011;14380;49.910;6.792;2023-08-21T01:21:11;1.95;;;1.55;;
26806;SDS011;14380;49.910;6.792;2023-08-21T01:23:40;2.28;;;1.90;;
26806;SDS011;14380;49.910;6.792;2023-08-21T01:26:08;2.15;;;1.77;;
26806;SDS011;14380;49.910;6.792;2023-08-21T01:28:35;2.97;;;1.77;;
26806;SDS011;14380;49.910;6.792;2023-08-21T01:31:04;3.33;;;1.95;;
26806;SDS011;14380;49.910;6.792;2023-08-21T01:33:35;2.70;;;2.08;;
26806;SDS011;14380;49.910;6.792;2023-08-21T01:36:06;2.22;;;1.70;;
26806;SDS011;14380;49.910;6.792;2023-08-21T01:38:33;8.25;;;1.52;;
26806;SDS011;14380;49.910;6.792;2023-08-21T01:41:01;1.63;;;1.50;;
26806;SDS011;14380;49.910;6.792;2023-08-21T01:43:28;2.92;;;1.95;;
26806;SDS011;14380;49.910;6.792;2023-08-21T01:45:55;2.60;;;2.08;;
26806;SDS011;14380;49.910;6.792;2023-08-21T01:48:22;2.53;;;1.83;;
26806;SDS011;14380;49.910;6.792;2023-08-21T01:50:48;2.22;;;1.75;;
26806;SDS011;14380;49.910;6.792;2023-08-21T01:53:15;2.95;;;1.70;;
26806;SDS011;14380;49.910;6.792;2023-08-21T01:55:41;2.38;;;1.70;;
26806;SDS011;14380;49.910;6.792;2023-08-21T01:58:09;6.30;;;2.60;;
26806;SDS011;14380;49.910;6.792;2023-08-21T02:00:36;2.30;;;1.70;;
26806;SDS011;14380;49.910;6.792;2023-08-21T02:03:02;3.47;;;2.67;;
26806;SDS011;14380;49.910;6.792;2023-08-21T02:05:29;2.67;;;2.08;;
26806;SDS011;14380;49.910;6.792;2023-08-21T02:07:56;2.17;;;1.80;;
26806;SDS011;14380;49.910;6.792;2023-08-21T02:10:22;3.17;;;1.80;;
26806;SDS011;14380;49.910;6.792;2023-08-21T02:12:49;2.63;;;2.13;;
26806;SDS011;14380;49.910;6.792;2023-08-21T02:15:18;2.42;;;2.22;;
26806;SDS011;14380;49.910;6.792;2023-08-21T02:17:47;4.70;;;2.50;;
26806;SDS011;14380;49.910;6.792;2023-08-21T02:20:13;2.97;;;2.08;;
26806;SDS011;14380;49.910;6.792;2023-08-21T02:22:40;4.35;;;3.15;;
26806;SDS011;14380;49.910;6.792;2023-08-21T02:25:07;2.70;;;1.80;;
26806;SDS011;14380;49.910;6.792;2023-08-21T02:27:34;2.70;;;2.15;;
26806;SDS011;14380;49.910;6.792;2023-08-21T02:30:01;3.78;;;2.83;;
26806;SDS011;14380;49.910;6.792;2023-08-21T02:32:29;3.45;;;2.20;;
26806;SDS011;14380;49.910;6.792;2023-08-21T02:34:56;2.03;;;1.80;;
26806;SDS011;14380;49.910;6.792;2023-08-21T02:37:22;3.13;;;2.40;;
26806;SDS011;14380;49.910;6.792;2023-08-21T02:39:50;2.72;;;2.00;;
26806;SDS011;14380;49.910;6.792;2023-08-21T02:42:16;2.65;;;2.03;;
26806;SDS011;14380;49.910;6.792;2023-08-21T02:44:43;3.35;;;2.03;;
26806;SDS011;14380;49.910;6.792;2023-08-21T02:47:10;4.28;;;2.42;;
26806;SDS011;14380;49.910;6.792;2023-08-21T02:49:39;3.15;;;1.58;;
26806;SDS011;14380;49.910;6.792;2023-08-21T02:52:05;3.67;;;2.28;;
26806;SDS011;14380;49.910;6.792;2023-08-21T02:54:32;3.53;;;2.38;;
26806;SDS011;14380;49.910;6.792;2023-08-21T02:56:59;2.30;;;1.77;;
26806;SDS011;14380;49.910;6.792;2023-08-21T02:59:25;2.00;;;1.77;;
26806;SDS011;14380;49.910;6.792;2023-08-21T03:01:52;3.00;;;2.20;;
26806;SDS011;14380;49.910;6.792;2023-08-21T03:04:18;2.42;;;1.85;;
26806;SDS011;14380;49.910;6.792;2023-08-21T03:06:46;5.35;;;2.85;;
26806;SDS011;14380;49.910;6.792;2023-08-21T03:09:12;2.63;;;1.92;;
26806;SDS011;14380;49.910;6.792;2023-08-21T03:11:39;3.45;;;2.42;;
26806;SDS011;14380;49.910;6.792;2023-08-21T03:14:06;4.43;;;2.90;;
26806;SDS011;14380;49.910;6.792;2023-08-21T03:16:32;2.33;;;2.13;;
26806;SDS011;14380;49.910;6.792;2023-08-21T03:18:59;3.75;;;2.25;;
26806;SDS011;14380;49.910;6.792;2023-08-21T03:21:26;3.15;;;1.70;;
26806;SDS011;14380;49.910;6.792;2023-08-21T03:23:55;3.92;;;2.35;;
26806;SDS011;14380;49.910;6.792;2023-08-21T03:26:23;2.30;;;1.77;;
26806;SDS011;14380;49.910;6.792;2023-08-21T03:28:50;3.13;;;2.03;;
26806;SDS011;14380;49.910;6.792;2023-08-21T03:31:16;2.00;;;1.80;;
26806;SDS011;14380;49.910;6.792;2023-08-21T03:33:43;3.40;;;2.00;;
26806;SDS011;14380;49.910;6.792;2023-08-21T03:36:09;3.78;;;2.35;;
26806;SDS011;14380;49.910;6.792;2023-08-21T03:38:36;3.42;;;2.70;;
26806;SDS011;14380;49.910;6.792;2023-08-21T03:41:04;2.38;;;2.10;;
26806;SDS011;14380;49.910;6.792;2023-08-21T03:43:31;2.63;;;2.35;;
26806;SDS011;14380;49.910;6.792;2023-08-21T03:45:58;3.15;;;2.13;;
26806;SDS011;14380;49.910;6.792;2023-08-21T03:48:24;2.20;;;2.00;;
26806;SDS011;14380;49.910;6.792;2023-08-21T03:50:51;2.47;;;1.80;;
26806;SDS011;14380;49.910;6.792;2023-08-21T03:53:18;3.72;;;2.47;;
26806;SDS011;14380;49.910;6.792;2023-08-21T03:55:44;4.13;;;2.75;;
26806;SDS011;14380;49.910;6.792;2023-08-21T03:58:13;2.80;;;2.10;;
26806;SDS011;14380;49.910;6.792;2023-08-21T04:00:39;3.28;;;2.22;;
26806;SDS011;14380;49.910;6.792;2023-08-21T04:03:06;3.65;;;2.28;;
26806;SDS011;14380;49.910;6.792;2023-08-21T04:05:33;3.42;;;2.47;;
26806;SDS011;14380;49.910;6.792;2023-08-21T04:07:59;3.08;;;2.22;;
26806;SDS011;14380;49.910;6.792;2023-08-21T04:10:26;3.08;;;1.88;;
26806;SDS011;14380;49.910;6.792;2023-08-21T04:12:52;3.08;;;2.30;;
26806;SDS011;14380;49.910;6.792;2023-08-21T04:15:20;3.28;;;2.72;;
26806;SDS011;14380;49.910;6.792;2023-08-21T04:17:47;2.33;;;1.98;;
26806;SDS011;14380;49.910;6.792;2023-08-21T04:20:13;3.35;;;2.95;;
26806;SDS011;14380;49.910;6.792;2023-08-21T04:22:40;2.88;;;2.30;;
26806;SDS011;14380;49.910;6.792;2023-08-21T04:25:07;5.50;;;2.38;;
26806;SDS011;14380;49.910;6.792;2023-08-21T04:27:34;2.92;;;2.47;;
26806;SDS011;14380;49.910;6.792;2023-08-21T04:30:00;2.30;;;1.70;;
26806;SDS011;14380;49.910;6.792;2023-08-21T04:32:28;3.10;;;2.40;;
26806;SDS011;14380;49.910;6.792;2023-08-21T04:34:55;4.72;;;1.83;;
26806;SDS011;14380;49.910;6.792;2023-08-21T04:37:22;3.15;;;2.25;;
26806;SDS011;14380;49.910;6.792;2023-08-21T04:39:50;3.45;;;2.75;;
26806;SDS011;14380;49.910;6.792;2023-08-21T04:42:16;3.30;;;2.30;;
26806;SDS011;14380;49.910;6.792;2023-08-21T04:44:43;5.95;;;2.70;;
26806;SDS011;14380;49.910;6.792;2023-08-21T04:47:19;3.83;;;2.42;;
26806;SDS011;14380;49.910;6.792;2023-08-21T04:49:49;2.67;;;2.13;;
26806;SDS011;14380;49.910;6.792;2023-08-21T04:52:15;2.03;;;1.80;;
26806;SDS011;14380;49.910;6.792;2023-08-21T04:54:42;2.42;;;2.08;;
26806;SDS011;14380;49.910;6.792;2023-08-21T04:57:08;3.83;;;2.83;;
26806;SDS011;14380;49.910;6.792;2023-08-21T04:59:35;4.13;;;2.05;;
26806;SDS011;14380;49.910;6.792;2023-08-21T05:02:01;3.63;;;2.45;;
26806;SDS011;14380;49.910;6.792;2023-08-21T05:04:28;3.20;;;2.15;;
26806;SDS011;14380;49.910;6.792;2023-08-21T05:06:56;3.75;;;2.40;;
26806;SDS011;14380;49.910;6.792;2023-08-21T05:09:23;2.90;;;2.13;;
26806;SDS011;14380;49.910;6.792;2023-08-21T05:11:49;3.88;;;3.28;;
26806;SDS011;14380;49.910;6.792;2023-08-21T05:14:16;2.58;;;2.00;;
26806;SDS011;14380;49.910;6.792;2023-08-21T05:16:44;3.97;;;2.35;;
26806;SDS011;14380;49.910;6.792;2023-08-21T05:19:13;3.40;;;2.20;;
26806;SDS011;14380;49.910;6.792;2023-08-21T05:21:39;2.83;;;2.13;;
26806;SDS011;14380;49.910;6.792;2023-08-21T05:24:07;3.55;;;2.28;;
26806;SDS011;14380;49.910;6.792;2023-08-21T05:26:35;2.38;;;2.00;;
26806;SDS011;14380;49.910;6.792;2023-08-21T05:29:02;3.20;;;2.28;;
26806;SDS011;14380;49.910;6.792;2023-08-21T05:31:29;3.17;;;2.17;;
26806;SDS011;14380;49.910;6.792;2023-08-21T05:33:55;2.67;;;2.00;;
26806;SDS011;14380;49.910;6.792;2023-08-21T05:36:22;3.67;;;2.17;;
26806;SDS011;14380;49.910;6.792;2023-08-21T05:38:49;2.35;;;1.98;;
26806;SDS011;14380;49.910;6.792;2023-08-21T05:41:17;2.08;;;1.88;;
26806;SDS011;14380;49.910;6.792;2023-08-21T05:43:44;2.42;;;2.22;;
26806;SDS011;14380;49.910;6.792;2023-08-21T05:46:10;4.72;;;2.22;;
26806;SDS011;14380;49.910;6.792;2023-08-21T05:48:37;2.15;;;1.95;;
26806;SDS011;14380;49.910;6.792;2023-08-21T05:51:04;1.95;;;1.75;;
26806;SDS011;14380;49.910;6.792;2023-08-21T05:53:30;2.22;;;1.77;;
26806;SDS011;14380;49.910;6.792;2023-08-21T05:55:57;2.33;;;2.05;;
26806;SDS011;14380;49.910;6.792;2023-08-21T05:58:25;2.38;;;1.63;;
26806;SDS011;14380;49.910;6.792;2023-08-21T06:00:55;3.28;;;1.92;;
26806;SDS011;14380;49.910;6.792;2023-08-21T06:03:22;3.22;;;2.03;;
26806;SDS011;14380;49.910;6.792;2023-08-21T06:05:48;5.65;;;2.20;;
26806;SDS011;14380;49.910;6.792;2023-08-21T06:08:15;2.88;;;1.70;;
26806;SDS011;14380;49.910;6.792;2023-08-21T06:10:43;2.85;;;2.10;;
26806;SDS011;14380;49.910;6.792;2023-08-21T06:13:10;2.08;;;1.70;;
26806;SDS011;14380;49.910;6.792;2023-08-21T06:15:38;2.95;;;1.90;;
26806;SDS011;14380;49.910;6.792;2023-08-21T06:18:04;4.32;;;2.22;;
26806;SDS011;14380;49.910;6.792;2023-08-21T06:20:31;3.05;;;2.22;;
26806;SDS011;14380;49.910;6.792;2023-08-21T06:22:57;3.28;;;2.33;;
26806;SDS011;14380;49.910;6.792;2023-08-21T06:25:24;4.15;;;3.33;;
26806;SDS011;14380;49.910;6.792;2023-08-21T06:27:50;2.80;;;2.30;;
26806;SDS011;14380;49.910;6.792;2023-08-21T06:30:17;2.47;;;2.28;;
26806;SDS011;14380;49.910;6.792;2023-08-21T06:32:45;3.10;;;2.22;;
26806;SDS011;14380;49.910;6.792;2023-08-21T06:35:12;5.40;;;2.63;;
26806;SDS011;14380;49.910;6.792;2023-08-21T06:37:39;3.28;;;2.10;;
26806;SDS011;14380;49.910;6.792;2023-08-21T06:40:06;2.78;;;2.00;;
26806;SDS011;14380;49.910;6.792;2023-08-21T06:42:33;3.33;;;2.50;;
26806;SDS011;14380;49.910;6.792;2023-08-21T06:44:59;2.45;;;2.25;;
26806;SDS011;14380;49.910;6.792;2023-08-21T06:47:26;1.90;;;1.58;;
26806;SDS011;14380;49.910;6.792;2023-08-21T06:49:54;4.30;;;1.90;;
26806;SDS011;14380;49.910;6.792;2023-08-21T06:52:20;8.80;;;2.55;;
26806;SDS011;14380;49.910;6.792;2023-08-21T06:54:47;2.88;;;2.13;;
26806;SDS011;14380;49.910;6.792;2023-08-21T06:57:13;2.55;;;1.75;;
26806;SDS011;14380;49.910;6.792;2023-08-21T06:59:40;3.40;;;2.13;;
26806;SDS011;14380;49.910;6.792;2023-08-21T07:02:07;1.60;;;1.50;;
26806;SDS011;14380;49.910;6.792;2023-08-21T07:04:33;3.28;;;2.03;;
26806;SDS011;14380;49.910;6.792;2023-08-21T07:07:01;2.17;;;1.90;;
26806;SDS011;14380;49.910;6.792;2023-08-21T07:09:28;2.40;;;1.60;;
26806;SDS011;14380;49.910;6.792;2023-08-21T07:11:54;3.65;;;2.20;;
26806;SDS011;14380;49.910;6.792;2023-08-21T07:14:21;2.58;;;2.03;;
26806;SDS011;14380;49.910;6.792;2023-08-21T07:16:48;2.28;;;1.80;;
26806;SDS011;14380;49.910;6.792;2023-08-21T07:19:14;2.35;;;2.13;;
26806;SDS011;14380;49.910;6.792;2023-08-21T07:21:43;2.47;;;1.85;;
26806;SDS011;14380;49.910;6.792;2023-08-21T07:24:11;2.20;;;1.92;;
26806;SDS011;14380;49.910;6.792;2023-08-21T07:26:37;3.60;;;2.30;;
26806;SDS011;14380;49.910;6.792;2023-08-21T07:29:04;4.30;;;2.45;;
26806;SDS011;14380;49.910;6.792;2023-08-21T07:31:31;2.13;;;1.88;;
26806;SDS011;14380;49.910;6.792;2023-08-21T07:33:57;2.25;;;2.00;;
26806;SDS011;14380;49.910;6.792;2023-08-21T07:36:24;2.75;;;2.22;;
26806;SDS011;14380;49.910;6.792;2023-08-21T07:38:50;4.10;;;2.08;;
26806;SDS011;14380;49.910;6.792;2023-08-21T07:41:18;2.50;;;1.90;;
26806;SDS011;14380;49.910;6.792;2023-08-21T07:43:45;2.85;;;1.80;;
26806;SDS011;14380;49.910;6.792;2023-08-21T07:46:12;3.10;;;1.73;;
26806;SDS011;14380;49.910;6.792;2023-08-21T07:48:40;3.50;;;1.80;;
26806;SDS011;14380;49.910;6.792;2023-08-21T07:51:07;4.05;;;2.03;;
26806;SDS011;14380;49.910;6.792;2023-08-21T07:53:34;2.28;;;1.80;;
26806;SDS011;14380;49.910;6.792;2023-08-21T07:56:01;3.42;;;2.53;;
26806;SDS011;14380;49.910;6.792;2023-08-21T07:58:30;6.45;;;2.28;;
26806;SDS011;14380;49.910;6.792;2023-08-21T08:00:57;2.85;;;2.30;;
26806;SDS011;14380;49.910;6.792;2023-08-21T08:03:24;4.22;;;1.90;;
26806;SDS011;14380;49.910;6.792;2023-08-21T08:05:51;2.38;;;1.70;;
26806;SDS011;14380;49.910;6.792;2023-08-21T08:08:17;3.03;;;2.22;;
26806;SDS011;14380;49.910;6.792;2023-08-21T08:10:44;2.10;;;1.88;;
26806;SDS011;14380;49.910;6.792;2023-08-21T08:13:10;2.40;;;1.85;;
26806;SDS011;14380;49.910;6.792;2023-08-21T08:15:38;3.15;;;1.88;;
26806;SDS011;14380;49.910;6.792;2023-08-21T08:18:09;2.63;;;2.10;;
26806;SDS011;14380;49.910;6.792;2023-08-21T08:20:37;2.70;;;2.03;;
26806;SDS011;14380;49.910;6.792;2023-08-21T08:23:04;2.72;;;2.05;;
26806;SDS011;14380;49.910;6.792;2023-08-21T08:25:30;3.05;;;1.77;;
26806;SDS011;14380;49.910;6.792;2023-08-21T08:27:57;2.63;;;1.83;;
26806;SDS011;14380;49.910;6.792;2023-08-21T08:30:23;2.45;;;2.05;;
26806;SDS011;14380;49.910;6.792;2023-08-21T08:32:51;2.72;;;1.90;;
26806;SDS011;14380;49.910;6.792;2023-08-21T08:35:18;2.10;;;1.88;;
26806;SDS011;14380;49.910;6.792;2023-08-21T08:37:44;1.63;;;1.45;;
26806;SDS011;14380;49.910;6.792;2023-08-21T08:40:11;4.00;;;1.92;;
26806;SDS011;14380;49.910;6.792;2023-08-21T08:42:38;2.35;;;1.73;;
26806;SDS011;14380;49.910;6.792;2023-08-21T08:45:05;2.30;;;2.10;;
26806;SDS011;14380;49.910;6.792;2023-08-21T08:47:32;1.83;;;1.73;;
26806;SDS011;14380;49.910;6.792;2023-08-21T08:50:02;2.55;;;1.90;;
26806;SDS011;14380;49.910;6.792;2023-08-21T08:52:31;1.55;;;1.45;;
26806;SDS011;14380;49.910;6.792;2023-08-21T08:55:01;1.58;;;1.38;;
26806;SDS011;14380;49.910;6.792;2023-08-21T08:57:28;2.40;;;1.73;;
26806;SDS011;14380;49.910;6.792;2023-08-21T08:59:55;3.67;;;2.00;;
26806;SDS011;14380;49.910;6.792;2023-08-21T09:02:23;2.53;;;1.80;;
26806;SDS011;14380;49.910;6.792;2023-08-21T09:04:52;2.00;;;1.80;;
26806;SDS011;14380;49.910;6.792;2023-08-21T09:07:20;2.33;;;1.67;;
26806;SDS011;14380;49.910;6.792;2023-08-21T09:09:47;3.45;;;2.28;;
26806;SDS011;14380;49.910;6.792;2023-08-21T09:12:16;1.75;;;1.55;;
26806;SDS011;14380;49.910;6.792;2023-08-21T09:14:44;2.97;;;1.40;;
26806;SDS011;14380;49.910;6.792;2023-08-21T09:17:11;3.67;;;2.35;;
26806;SDS011;14380;49.910;6.792;2023-08-21T09:19:38;1.88;;;1.63;;
26806;SDS011;14380;49.910;6.792;2023-08-21T09:22:08;2.95;;;1.90;;
26806;SDS011;14380;49.910;6.792;2023-08-21T09:24:37;2.53;;;1.80;;
26806;SDS011;14380;49.910;6.792;2023-08-21T09:27:11;1.90;;;1.73;;
26806;SDS011;14380;49.910;6.792;2023-08-21T09:29:39;2.92;;;1.73;;
26806;SDS011;14380;49.910;6.792;2023-08-21T09:32:07;2.78;;;1.73;;
26806;SDS011;14380;49.910;6.792;2023-08-21T09:34:34;2.10;;;1.80;;
26806;SDS011;14380;49.910;6.792;2023-08-21T09:37:04;2.85;;;2.13;;
26806;SDS011;14380;49.910;6.792;2023-08-21T09:39:32;1.73;;;1.55;;
26806;SDS011;14380;49.910;6.792;2023-08-21T09:42:01;1.65;;;1.55;;
26806;SDS011;14380;49.910;6.792;2023-08-21T09:44:34;2.40;;;2.00;;
26806;SDS011;14380;49.910;6.792;2023-08-21T09:47:01;2.20;;;1.77;;
26806;SDS011;14380;49.910;6.792;2023-08-21T09:49:28;2.75;;;1.70;;
26806;SDS011;14380;49.910;6.792;2023-08-21T09:51:55;3.13;;;1.95;;
26806;SDS011;14380;49.910;6.792;2023-08-21T09:54:23;1.77;;;1.58;;
26806;SDS011;14380;49.910;6.792;2023-08-21T09:56:50;4.00;;;2.00;;
26806;SDS011;14380;49.910;6.792;2023-08-21T09:59:18;2.47;;;1.33;;
26806;SDS011;14380;49.910;6.792;2023-08-21T10:01:45;3.28;;;2.17;;
26806;SDS011;14380;49.910;6.792;2023-08-21T10:04:15;2.90;;;1.40;;
26806;SDS011;14380;49.910;6.792;2023-08-21T10:06:43;1.42;;;1.15;;
26806;SDS011;14380;49.910;6.792;2023-08-21T10:09:12;1.42;;;1.33;;
26806;SDS011;14380;49.910;6.792;2023-08-21T10:11:40;1.40;;;1.08;;
26806;SDS011;14380;49.910;6.792;2023-08-21T10:14:08;1.10;;;1.00;;
26806;SDS011;14380;49.910;6.792;2023-08-21T10:16:37;0.90;;;0.90;;
26806;SDS011;14380;49.910;6.792;2023-08-21T10:19:04;1.40;;;1.02;;
26806;SDS011;14380;49.910;6.792;2023-08-21T10:21:34;1.88;;;0.73;;
26806;SDS011;14380;49.910;6.792;2023-08-21T10:24:02;0.90;;;0.63;;
26806;SDS011;14380;49.910;6.792;2023-08-21T10:26:29;0.57;;;0.55;;
26806;SDS011;14380;49.910;6.792;2023-08-21T10:28:56;0.50;;;0.50;;
26806;SDS011;14380;49.910;6.792;2023-08-21T10:34:10;0.82;;;0.70;;
26806;SDS011;14380;49.910;6.792;2023-08-21T10:36:38;1.13;;;0.82;;
26806;SDS011;14380;49.910;6.792;2023-08-21T10:39:12;0.82;;;0.50;;
26806;SDS011;14380;49.910;6.792;2023-08-21T10:41:39;1.48;;;0.60;;
26806;SDS011;14380;49.910;6.792;2023-08-21T10:44:05;3.45;;;1.00;;
26806;SDS011;14380;49.910;6.792;2023-08-21T10:49:17;0.80;;;0.70;;
26806;SDS011;14380;49.910;6.792;2023-08-21T10:51:44;0.65;;;0.60;;
26806;SDS011;14380;49.910;6.792;2023-08-21T10:54:11;0.75;;;0.68;;
26806;SDS011;14380;49.910;6.792;2023-08-21T10:56:37;1.20;;;0.93;;
26806;SDS011;14380;49.910;6.792;2023-08-21T10:59:04;0.80;;;0.60;;
26806;SDS011;14380;49.910;6.792;2023-08-21T11:01:41;1.17;;;0.70;;
26806;SDS011;14380;49.910;6.792;2023-08-21T11:04:11;2.10;;;0.85;;
26806;SDS011;14380;49.910;6.792;2023-08-21T11:06:38;0.90;;;0.40;;
26806;SDS011;14380;49.910;6.792;2023-08-21T11:09:05;0.60;;;0.60;;
26806;SDS011;14380;49.910;6.792;2023-08-21T11:11:31;0.60;;;0.60;;
26806;SDS011;14380;49.910;6.792;2023-08-21T11:13:59;0.73;;;0.65;;
26806;SDS011;14380;49.910;6.792;2023-08-21T11:16:26;0.82;;;0.75;;
26806;SDS011;14380;49.910;6.792;2023-08-21T11:18:52;0.70;;;0.60;;
26806;SDS011;14380;49.910;6.792;2023-08-21T11:21:20;0.80;;;0.80;;
26806;SDS011;14380;49.910;6.792;2023-08-21T11:23:52;1.48;;;1.00;;
26806;SDS011;14380;49.910;6.792;2023-08-21T11:26:18;0.50;;;0.47;;
26806;SDS011;14380;49.910;6.792;2023-08-21T11:28:45;0.73;;;0.50;;
26806;SDS011;14380;49.910;6.792;2023-08-21T11:31:12;0.80;;;0.40;;
26806;SDS011;14380;49.910;6.792;2023-08-21T11:33:38;0.73;;;0.30;;
26806;SDS011;14380;49.910;6.792;2023-08-21T11:36:05;0.60;;;0.60;;
26806;SDS011;14380;49.910;6.792;2023-08-21T11:38:33;0.43;;;0.43;;
26806;SDS011;14380;49.910;6.792;2023-08-21T11:41:00;0.25;;;0.25;;
26806;SDS011;14380;49.910;6.792;2023-08-21T11:43:35;0.40;;;0.40;;
26806;SDS011;14380;49.910;6.792;2023-08-21T11:46:02;0.20;;;0.20;;
26806;SDS011;14380;49.910;6.792;2023-08-21T11:48:29;2.75;;;0.50;;
26806;SDS011;14380;49.910;6.792;2023-08-21T11:50:56;0.30;;;0.30;;
26806;SDS011;14380;49.910;6.792;2023-08-21T11:53:32;0.63;;;0.45;;
26806;SDS011;14380;49.910;6.792;2023-08-21T11:56:01;0.55;;;0.38;;
26806;SDS011;14380;49.910;6.792;2023-08-21T11:58:28;0.60;;;0.45;;
26806;SDS011;14380;49.910;6.792;2023-08-21T12:01:01;0.30;;;0.30;;
26806;SDS011;14380;49.910;6.792;2023-08-21T12:03:29;1.95;;;0.73;;
26806;SDS011;14380;49.910;6.792;2023-08-21T12:05:56;0.40;;;0.40;;
26806;SDS011;14380;49.910;6.792;2023-08-21T12:08:22;0.98;;;0.50;;
26806;SDS011;14380;49.910;6.792;2023-08-21T12:10:51;0.30;;;0.30;;
26806;SDS011;14380;49.910;6.792;2023-08-21T12:13:18;0.28;;;0.25;;
26806;SDS011;14380;49.910;6.792;2023-08-21T12:15:44;0.50;;;0.38;;
26806;SDS011;14380;49.910;6.792;2023-08-21T12:18:11;0.52;;;0.30;;
26806;SDS011;14380;49.910;6.792;2023-08-21T12:20:37;1.75;;;0.50;;
26806;SDS011;14380;49.910;6.792;2023-08-21T12:23:04;0.30;;;0.30;;
26806;SDS011;14380;49.910;6.792;2023-08-21T12:25:30;0.30;;;0.30;;
26806;SDS011;14380;49.910;6.792;2023-08-21T12:27:59;0.88;;;0.50;;
26806;SDS011;14380;49.910;6.792;2023-08-21T12:30:27;0.40;;;0.35;;
26806;SDS011;14380;49.910;6.792;2023-08-21T12:32:54;0.98;;;0.45;;
26806;SDS011;14380;49.910;6.792;2023-08-21T12:35:20;0.90;;;0.50;;
26806;SDS011;14380;49.910;6.792;2023-08-21T12:37:47;0.40;;;0.40;;
26806;SDS011;14380;49.910;6.792;2023-08-21T12:40:13;0.55;;;0.38;;
26806;SDS011;14380;49.910;6.792;2023-08-21T12:42:40;0.95;;;0.50;;
26806;SDS011;14380;49.910;6.792;2023-08-21T12:45:09;1.05;;;0.50;;
26806;SDS011;14380;49.910;6.792;2023-08-21T12:47:36;0.80;;;0.55;;
26806;SDS011;14380;49.910;6.792;2023-08-21T12:50:02;0.93;;;0.40;;
26806;SDS011;14380;49.910;6.792;2023-08-21T12:52:29;0.60;;;0.40;;
26806;SDS011;14380;49.910;6.792;2023-08-21T12:54:56;0.43;;;0.40;;
26806;SDS011;14380;49.910;6.792;2023-08-21T12:57:24;0.98;;;0.70;;
26806;SDS011;14380;49.910;6.792;2023-08-21T12:59:51;1.70;;;0.55;;
26806;SDS011;14380;49.910;6.792;2023-08-21T13:02:19;0.43;;;0.43;;
26806;SDS011;14380;49.910;6.792;2023-08-21T13:04:48;0.40;;;0.40;;
26806;SDS011;14380;49.910;6.792;2023-08-21T13:07:14;0.60;;;0.38;;
26806;SDS011;14380;49.910;6.792;2023-08-21T13:09:41;0.40;;;0.40;;
26806;SDS011;14380;49.910;6.792;2023-08-21T13:12:07;0.80;;;0.50;;
26806;SDS011;14380;49.910;6.792;2023-08-21T13:14:34;0.20;;;0.20;;
26806;SDS011;14380;49.910;6.792;2023-08-21T13:17:01;0.30;;;0.30;;
26806;SDS011;14380;49.910;6.792;2023-08-21T13:19:29;3.17;;;0.57;;
26806;SDS011;14380;49.910;6.792;2023-08-21T13:21:56;0.80;;;0.22;;
26806;SDS011;14380;49.910;6.792;2023-08-21T13:24:22;1.00;;;0.50;;
26806;SDS011;14380;49.910;6.792;2023-08-21T13:26:50;0.45;;;0.20;;
26806;SDS011;14380;49.910;6.792;2023-08-21T13:29:17;0.52;;;0.30;;
26806;SDS011;14380;49.910;6.792;2023-08-21T13:31:43;0.50;;;0.50;;
26806;SDS011;14380;49.910;6.792;2023-08-21T13:34:10;0.68;;;0.40;;
26806;SDS011;14380;49.910;6.792;2023-08-21T13:36:39;0.57;;;0.57;;
26806;SDS011;14380;49.910;6.792;2023-08-21T13:39:05;0.70;;;0.40;;
26806;SDS011;14380;49.910;6.792;2023-08-21T13:41:33;0.30;;;0.30;;
26806;SDS011;14380;49.910;6.792;2023-08-21T13:44:00;0.40;;;0.22;;
26806;SDS011;14380;49.910;6.792;2023-08-21T13:46:26;0.30;;;0.30;;
26806;SDS011;14380;49.910;6.792;2023-08-21T13:48:53;3.67;;;0.60;;
26806;SDS011;14380;49.910;6.792;2023-08-21T13:51:19;0.30;;;0.30;;
26806;SDS011;14380;49.910;6.792;2023-08-21T13:53:47;0.30;;;0.30;;
26806;SDS011;14380;49.910;6.792;2023-08-21T13:56:14;0.73;;;0.50;;
26806;SDS011;14380;49.910;6.792;2023-08-21T13:58:41;0.20;;;0.20;;
26806;SDS011;14380;49.910;6.792;2023-08-21T14:01:07;0.40;;;0.38;;
26806;SDS011;14380;49.910;6.792;2023-08-21T14:03:34;0.40;;;0.40;;
26806;SDS011;14380;49.910;6.792;2023-08-21T14:06:00;0.20;;;0.20;;
26806;SDS011;14380;49.910;6.792;2023-08-21T14:08:27;0.95;;;0.52;;
26806;SDS011;14380;49.910;6.792;2023-08-21T14:10:55;0.40;;;0.40;;
26806;SDS011;14380;49.910;6.792;2023-08-21T14:13:22;0.35;;;0.35;;
26806;SDS011;14380;49.910;6.792;2023-08-21T14:15:49;0.43;;;0.40;;
26806;SDS011;14380;49.910;6.792;2023-08-21T14:18:15;0.77;;;0.50;;
26806;SDS011;14380;49.910;6.792;2023-08-21T14:20:42;0.47;;;0.32;;
26806;SDS011;14380;49.910;6.792;2023-08-21T14:23:08;1.90;;;1.33;;
26806;SDS011;14380;49.910;6.792;2023-08-21T14:25:35;0.60;;;0.57;;
26806;SDS011;14380;49.910;6.792;2023-08-21T14:28:04;0.68;;;0.20;;
26806;SDS011;14380;49.910;6.792;2023-08-21T14:30:31;0.40;;;0.25;;
26806;SDS011;14380;49.910;6.792;2023-08-21T14:32:58;2.45;;;0.40;;
26806;SDS011;14380;49.910;6.792;2023-08-21T14:35:25;0.52;;;0.50;;
26806;SDS011;14380;49.910;6.792;2023-08-21T14:37:51;1.23;;;0.52;;
26806;SDS011;14380;49.910;6.792;2023-08-21T14:40:18;1.15;;;0.40;;
26806;SDS011;14380;49.910;6.792;2023-08-21T14:42:44;0.28;;;0.28;;
26806;SDS011;14380;49.910;6.792;2023-08-21T14:45:12;0.20;;;0.20;;
26806;SDS011;14380;49.910;6.792;2023-08-21T14:47:39;0.38;;;0.32;;
26806;SDS011;14380;49.910;6.792;2023-08-21T14:50:06;0.60;;;0.60;;
26806;SDS011;14380;49.910;6.792;2023-08-21T14:52:34;1.05;;;0.40;;
26806;SDS011;14380;49.910;6.792;2023-08-21T14:55:01;0.50;;;0.50;;